<?xml version="1.0" encoding="UTF-8" standalone="no" ?><gpx xmlns="http://www.topografix.com/GPX/1/1" xmlns:gpxx="http://www.garmin.com/xmlschemas/GpxExtensions/v3" xmlns:wptx1="http://www.garmin.com/xmlschemas/WaypointExtension/v1" xmlns:gpxtpx="http://www.garmin.com/xmlschemas/TrackPointExtension/v1" creator="eTrex 30" version="1.1" xmlns:xsi="http://www.w3.org/2001/XMLSchema-instance" xsi:schemaLocation="http://www.topografix.com/GPX/1/1 http://www.topografix.com/GPX/1/1/gpx.xsd http://www.garmin.com/xmlschemas/GpxExtensions/v3 http://www8.garmin.com/xmlschemas/GpxExtensionsv3.xsd http://www.garmin.com/xmlschemas/WaypointExtension/v1 http://www8.garmin.com/xmlschemas/WaypointExtensionv1.xsd http://www.garmin.com/xmlschemas/TrackPointExtension/v1 http://www.garmin.com/xmlschemas/TrackPointExtensionv1.xsd"><metadata><link href="http://www.garmin.com"><text>Garmin International</text></link><time>2012-08-20T22:30:22Z</time></metadata><trk><name>2012-02-28 22:12:36 Auto</name><extensions><gpxx:TrackExtension><gpxx:DisplayColor>Cyan</gpxx:DisplayColor></gpxx:TrackExtension></extensions><trkseg><trkpt lat="-12.1013177186" lon="-77.0299208164"><ele>110.21</ele><time>2012-02-29T03:12:36Z</time></trkpt><trkpt lat="-12.1013246756" lon="-77.0299240015"><ele>110.21</ele><time>2012-02-29T03:12:37Z</time></trkpt><trkpt lat="-12.1013628133" lon="-77.0303943940"><ele>110.21</ele><time>2012-02-29T03:13:03Z</time></trkpt><trkpt lat="-12.1013669204" lon="-77.0304866787"><ele>111.17</ele><time>2012-02-29T03:13:31Z</time></trkpt><trkpt lat="-12.1013563592" lon="-77.0304854214"><ele>111.65</ele><time>2012-02-29T03:14:05Z</time></trkpt><trkpt lat="-12.1013454627" lon="-77.0304813143"><ele>111.65</ele><time>2012-02-29T03:14:38Z</time></trkpt><trkpt lat="-12.1013459656" lon="-77.0304797217"><ele>111.65</ele><time>2012-02-29T03:15:05Z</time></trkpt><trkpt lat="-12.1013459656" lon="-77.0304797217"><ele>111.65</ele><time>2012-02-29T03:15:37Z</time></trkpt><trkpt lat="-12.1013439540" lon="-77.0304807276"><ele>111.65</ele><time>2012-02-29T03:16:05Z</time></trkpt><trkpt lat="-12.1013427805" lon="-77.0304815657"><ele>111.65</ele><time>2012-02-29T03:16:36Z</time></trkpt><trkpt lat="-12.1013446245" lon="-77.0304818172"><ele>111.65</ele><time>2012-02-29T03:17:09Z</time></trkpt><trkpt lat="-12.1013446245" lon="-77.0304818172"><ele>111.65</ele><time>2012-02-29T03:17:40Z</time></trkpt><trkpt lat="-12.1013465524" lon="-77.0304810628"><ele>111.17</ele><time>2012-02-29T03:18:15Z</time></trkpt><trkpt lat="-12.1013473906" lon="-77.0304824878"><ele>111.17</ele><time>2012-02-29T03:18:53Z</time></trkpt><trkpt lat="-12.1013482288" lon="-77.0304818172"><ele>111.17</ele><time>2012-02-29T03:19:29Z</time></trkpt><trkpt lat="-12.1013484802" lon="-77.0304813143"><ele>111.17</ele><time>2012-02-29T03:20:03Z</time></trkpt><trkpt lat="-12.1013484802" lon="-77.0304815657"><ele>110.69</ele><time>2012-02-29T03:20:40Z</time></trkpt><trkpt lat="-12.1013480611" lon="-77.0304816496"><ele>110.69</ele><time>2012-02-29T03:21:18Z</time></trkpt><trkpt lat="-12.1013475582" lon="-77.0304822363"><ele>110.69</ele><time>2012-02-29T03:21:57Z</time></trkpt><trkpt lat="-12.1013465524" lon="-77.0304830745"><ele>110.69</ele><time>2012-02-29T03:22:28Z</time></trkpt><trkpt lat="-12.1013465524" lon="-77.0304830745"><ele>110.69</ele><time>2012-02-29T03:23:00Z</time></trkpt><trkpt lat="-12.1013457980" lon="-77.0304836612"><ele>110.69</ele><time>2012-02-29T03:23:26Z</time></trkpt><trkpt lat="-12.1013457980" lon="-77.0304852538"><ele>110.69</ele><time>2012-02-29T03:23:57Z</time></trkpt><trkpt lat="-12.1013449598" lon="-77.0304808114"><ele>110.69</ele><time>2012-02-29T03:24:32Z</time></trkpt><trkpt lat="-12.1013476420" lon="-77.0304810628"><ele>110.69</ele><time>2012-02-29T03:25:08Z</time></trkpt><trkpt lat="-12.1013472229" lon="-77.0304806437"><ele>110.69</ele><time>2012-02-29T03:25:49Z</time></trkpt><trkpt lat="-12.1013472229" lon="-77.0304806437"><ele>110.69</ele><time>2012-02-29T03:26:24Z</time></trkpt><trkpt lat="-12.1013492346" lon="-77.0304813143"><ele>110.69</ele><time>2012-02-29T03:26:54Z</time></trkpt><trkpt lat="-12.1013516653" lon="-77.0304808114"><ele>110.69</ele><time>2012-02-29T03:27:29Z</time></trkpt><trkpt lat="-12.1013523359" lon="-77.0304819010"><ele>110.69</ele><time>2012-02-29T03:28:09Z</time></trkpt><trkpt lat="-12.1013558563" lon="-77.0304851700"><ele>110.69</ele><time>2012-02-29T03:28:48Z</time></trkpt><trkpt lat="-12.1013579518" lon="-77.0304877684"><ele>110.69</ele><time>2012-02-29T03:29:29Z</time></trkpt><trkpt lat="-12.1013599634" lon="-77.0304883551"><ele>110.69</ele><time>2012-02-29T03:29:52Z</time></trkpt></trkseg></trk></gpx>